Time;durP1;ratioP1;P1;durP2;ratioP2;P2;SDS_P1;SDS_P2;PMS_P1;PMS_P2;Temp;Humidity;BMP_temperature;BMP_pressure;BME280_temperature;BME280_humidity;BME280_pressure;Samples;Min_cycle;Max_cycle;Signal;HPM_P1;HPM_P2
2022/04/02 00:02:22;;;;;;;5.80;3.25;;;;;;;1.65;52.19;98917.69;5069920;28;20033;-63
2022/04/02 00:04:47;;;;;;;4.50;2.55;;;;;;;1.47;52.69;98907.28;5052258;28;20334;-62
2022/04/02 00:07:13;;;;;;;5.80;3.00;;;;;;;1.58;52.32;98912.75;5069965;28;20068;-63
2022/04/02 00:09:38;;;;;;;4.22;2.60;;;;;;;1.63;52.37;98903.72;5070262;28;20115;-59
2022/04/02 00:12:04;;;;;;;3.63;1.83;;;;;;;1.81;51.32;98912.34;5070355;28;20029;-62
2022/04/02 00:14:30;;;;;;;8.20;2.53;;;;;;;1.71;51.86;98896.22;5070182;28;20127;-62
2022/04/02 00:16:55;;;;;;;3.42;2.33;;;;;;;1.78;51.63;98894.91;5070078;28;20584;-63
2022/04/02 00:19:21;;;;;;;4.20;2.70;;;;;;;1.60;51.97;98902.13;5070427;28;20055;-62
2022/04/02 00:21:46;;;;;;;5.15;2.70;;;;;;;1.47;52.50;98886.16;5069954;28;20406;-62
2022/04/02 00:24:12;;;;;;;4.03;2.80;;;;;;;1.68;52.02;98889.31;5070136;28;20122;-64
2022/04/02 00:26:37;;;;;;;4.28;2.72;;;;;;;1.42;52.75;98885.56;5070484;28;20114;-63
2022/04/02 00:29:05;;;;;;;4.25;2.10;;;;;;;1.42;52.76;98888.19;5070025;28;20092;-62
2022/04/02 00:31:31;;;;;;;4.05;2.70;;;;;;;1.72;52.18;98895.28;5052215;28;20029;-62
2022/04/02 00:33:57;;;;;;;3.80;2.53;;;;;;;1.53;52.64;98891.09;5070280;28;20025;-63
2022/04/02 00:36:23;;;;;;;3.88;2.85;;;;;;;1.43;53.07;98882.00;5070826;28;20389;-62
2022/04/02 00:38:49;;;;;;;2.22;1.42;;;;;;;1.70;52.31;98887.44;5073599;28;20048;-62
2022/04/02 00:41:16;;;;;;;5.57;3.33;;;;;;;1.69;52.25;98890.19;5073940;28;20033;-63
2022/04/02 00:43:58;;;;;;;5.88;3.22;;;;;;;1.57;52.33;98871.50;5073704;28;20041;-62
2022/04/02 00:46:24;;;;;;;3.67;2.60;;;;;;;1.64;52.36;98856.16;5073322;28;20397;-63
2022/04/02 00:48:50;;;;;;;4.47;2.88;;;;;;;1.62;52.94;98863.31;5073807;28;20028;-63
2022/04/02 00:51:16;;;;;;;3.88;2.22;;;;;;;1.84;51.59;98865.50;5073972;28;20056;-63
2022/04/02 00:53:45;;;;;;;4.07;2.47;;;;;;;1.78;52.02;98857.97;5073020;28;20171;-63
2022/04/02 00:56:13;;;;;;;4.22;2.22;;;;;;;1.48;52.57;98845.66;5073499;28;20029;-57
2022/04/02 00:58:39;;;;;;;4.72;3.28;;;;;;;1.16;52.53;98779.81;5074004;28;20032;-62
2022/04/02 01:01:06;;;;;;;4.85;2.90;;;;;;;1.47;52.99;98849.25;5073520;28;20028;-62
2022/04/02 01:03:32;;;;;;;4.35;2.47;;;;;;;1.50;52.91;98853.47;5073073;28;20480;-63
2022/04/02 01:05:58;;;;;;;5.70;2.90;;;;;;;1.54;52.96;98844.44;5073213;28;20032;-63
2022/04/02 01:08:24;;;;;;;6.75;2.35;;;;;;;1.50;53.00;98830.59;5073630;28;20024;-62
2022/04/02 01:10:49;;;;;;;4.60;3.00;;;;;;;1.47;53.47;98837.81;5073432;28;20040;-62
2022/04/02 01:13:16;;;;;;;5.35;3.20;;;;;;;1.75;53.00;98831.75;5072915;28;20032;-63
2022/04/02 01:15:42;;;;;;;4.40;2.50;;;;;;;1.69;52.67;98826.88;5073038;28;20101;-62
2022/04/02 01:18:07;;;;;;;4.40;2.90;;;;;;;1.36;52.70;98798.91;5073785;28;20028;-63
2022/04/02 01:20:33;;;;;;;4.75;2.63;;;;;;;1.55;53.21;98825.88;5073236;28;20028;-62
2022/04/02 01:23:00;;;;;;;4.25;2.60;;;;;;;1.39;53.53;98782.88;5072640;28;20359;-62
2022/04/02 01:25:31;;;;;;;5.50;2.55;;;;;;;1.51;53.02;98808.53;5072815;28;20028;-63
2022/04/02 01:27:59;;;;;;;2.97;1.77;;;;;;;1.58;53.45;98815.16;5073073;28;20033;-62
2022/04/02 01:30:25;;;;;;;4.70;2.53;;;;;;;1.63;53.33;98827.22;5073093;28;20494;-62
2022/04/02 01:32:50;;;;;;;3.30;2.55;;;;;;;1.35;53.55;98765.56;5072696;28;20112;-63
2022/04/02 01:35:16;;;;;;;4.70;2.88;;;;;;;1.55;53.52;98803.91;5072582;28;20028;-63
2022/04/02 01:37:42;;;;;;;4.45;2.00;;;;;;;1.25;53.41;98755.56;5073009;28;20049;-61
2022/04/02 01:40:07;;;;;;;4.68;2.80;;;;;;;1.29;54.52;98812.44;5072920;28;20123;-61
2022/04/02 01:42:33;;;;;;;6.30;3.10;;;;;;;1.46;54.01;98805.34;5072403;28;20032;-63
2022/04/02 01:44:59;;;;;;;6.13;2.85;;;;;;;1.38;54.17;98805.78;5072516;28;20036;-63
2022/04/02 01:47:25;;;;;;;2.97;1.80;;;;;;;1.48;54.41;98806.09;5072232;28;20478;-63
2022/04/02 01:49:50;;;;;;;5.53;2.80;;;;;;;1.06;54.60;98760.22;5072015;28;20024;-63
2022/04/02 01:52:19;;;;;;;3.72;2.10;;;;;;;1.42;54.10;98801.16;5072279;28;20044;-63
2022/04/02 01:54:46;;;;;;;2.63;1.90;;;;;;;1.39;54.28;98794.28;5072141;28;20028;-62
2022/04/02 01:57:12;;;;;;;4.30;2.30;;;;;;;1.27;54.50;98793.25;5072416;28;20040;-63
2022/04/02 01:59:40;;;;;;;4.78;3.05;;;;;;;1.19;54.08;98758.53;5072126;28;20037;-63
2022/04/02 02:02:07;;;;;;;3.50;2.58;;;;;;;1.22;54.89;98792.66;5072040;28;20123;-63
2022/04/02 02:04:36;;;;;;;4.68;3.10;;;;;;;1.20;54.57;98786.59;5071954;28;20381;-63
2022/04/02 02:07:03;;;;;;;4.53;2.30;;;;;;;1.03;55.46;98792.03;5072242;28;20116;-64
2022/04/02 02:09:28;;;;;;;4.65;2.65;;;;;;;1.19;54.69;98786.72;5071960;28;20032;-64
2022/04/02 02:11:54;;;;;;;4.80;3.20;;;;;;;1.04;55.82;98788.47;5072005;28;20074;-63
2022/04/02 02:14:20;;;;;;;5.18;3.25;;;;;;;1.07;55.67;98783.84;5054227;28;20187;-63
2022/04/02 02:16:45;;;;;;;5.43;2.92;;;;;;;1.37;54.43;98782.13;5071801;28;20187;-60
2022/04/02 02:19:10;;;;;;;3.13;2.60;;;;;;;1.22;54.48;98765.44;5072157;28;20032;-62
2022/04/02 02:21:36;;;;;;;6.40;3.08;;;;;;;1.04;55.31;98757.66;5054264;28;20059;-62
2022/04/02 02:24:04;;;;;;;3.85;2.72;;;;;;;1.52;53.42;98778.59;5071589;28;20424;-63
2022/04/02 02:26:30;;;;;;;4.53;2.83;;;;;;;1.34;53.35;98767.34;5071675;28;20111;-62
2022/04/02 02:28:55;;;;;;;4.03;2.90;;;;;;;1.13;54.68;98780.88;5072026;28;20052;-64
2022/04/02 02:31:21;;;;;;;6.65;2.80;;;;;;;1.23;54.00;98782.94;5053729;28;20068;-63
2022/04/02 02:36:31;;;;;;;6.47;3.15;;;;;;;1.23;53.66;98773.25;5071902;28;20051;-62
2022/04/02 02:38:56;;;;;;;6.03;2.38;;;;;;;1.30;53.23;98768.44;5071506;28;20347;-63
2022/04/02 02:41:22;;;;;;;5.05;2.78;;;;;;;1.27;53.21;98772.13;5071286;28;20036;-63
2022/04/02 02:43:47;;;;;;;4.45;3.15;;;;;;;1.11;53.85;98784.50;5071414;28;20470;-61
2022/04/02 02:46:14;;;;;;;2.65;1.80;;;;;;;1.07;54.10;98781.19;5072019;28;20025;-64
2022/04/02 02:48:47;;;;;;;3.15;2.42;;;;;;;1.08;54.33;98789.97;5071170;28;20044;-63
2022/04/02 02:51:13;;;;;;;4.07;3.03;;;;;;;0.89;55.36;98816.56;5071554;28;20060;-64
2022/04/02 02:53:39;;;;;;;4.72;3.13;;;;;;;1.14;54.10;98805.44;5071454;28;20470;-63
2022/04/02 02:56:06;;;;;;;4.25;2.45;;;;;;;1.27;53.28;98795.88;5071863;28;20032;-63
2022/04/02 02:58:31;;;;;;;4.13;2.80;;;;;;;1.23;53.59;98788.22;5070943;28;20043;-64
2022/04/02 03:00:57;;;;;;;4.05;2.70;;;;;;;0.99;54.51;98781.66;5070961;28;20024;-64
2022/04/02 03:03:23;;;;;;;3.90;2.55;;;;;;;0.98;54.16;98787.88;5071426;28;20486;-64
2022/04/02 03:05:49;;;;;;;4.57;2.95;;;;;;;0.95;55.00;98803.84;5071704;28;20032;-63
2022/04/02 03:08:16;;;;;;;3.65;2.80;;;;;;;1.02;54.75;98792.97;5071125;28;20085;-62
2022/04/02 03:10:43;;;;;;;5.03;3.33;;;;;;;0.99;55.11;98784.31;5070563;28;20028;-62
2022/04/02 03:13:08;;;;;;;4.38;2.45;;;;;;;0.98;55.21;98790.53;5071121;28;20032;-62
2022/04/02 03:15:34;;;;;;;7.05;3.42;;;;;;;0.81;55.67;98773.00;5071383;28;20039;-62
2022/04/02 03:18:05;;;;;;;4.70;3.08;;;;;;;0.75;55.80;98775.19;5070842;28;20070;-63
2022/04/02 03:20:31;;;;;;;5.60;2.25;;;;;;;1.03;55.32;98784.13;5070724;28;20029;-62
2022/04/02 03:22:56;;;;;;;5.50;3.17;;;;;;;0.82;56.67;98769.44;5071032;28;20382;-64
2022/04/02 03:25:22;;;;;;;4.03;2.88;;;;;;;0.65;57.15;98777.47;5070974;28;20085;-60
2022/04/02 03:27:48;;;;;;;4.47;2.88;;;;;;;0.75;57.53;98777.81;5070932;28;20025;-61
2022/04/02 03:30:22;;;;;;;5.47;3.15;;;;;;;0.43;57.57;98721.59;5070400;28;20021;-64
2022/04/02 03:32:48;;;;;;;5.85;2.75;;;;;;;0.74;57.67;98770.84;5071154;28;20036;-63
2022/04/02 03:35:15;;;;;;;5.05;3.63;;;;;;;0.48;59.40;98775.78;5070814;28;20036;-62
2022/04/02 03:37:42;;;;;;;7.82;3.53;;;;;;;0.46;59.50;98775.88;5070493;28;20048;-63
2022/04/02 03:40:10;;;;;;;6.35;3.53;;;;;;;0.30;60.80;98786.41;5070384;28;20066;-63
2022/04/02 03:42:37;;;;;;;2.88;1.85;;;;;;;0.50;59.26;98792.38;5070663;28;20422;-61
2022/04/02 03:45:07;;;;;;;5.97;4.20;;;;;;;0.45;59.93;98778.59;5070651;28;20039;-61
2022/04/02 03:47:32;;;;;;;5.45;3.63;;;;;;;0.43;59.65;98773.41;5052284;28;20072;-61
2022/04/02 03:49:58;;;;;;;5.85;4.07;;;;;;;0.50;59.66;98768.66;5070179;28;20037;-62
2022/04/02 03:52:24;;;;;;;6.57;3.03;;;;;;;0.51;59.63;98775.63;5070132;28;20504;-62
2022/04/02 03:54:49;;;;;;;6.43;3.50;;;;;;;0.68;58.84;98772.03;5070621;28;20039;-62
2022/04/02 03:57:16;;;;;;;7.85;3.92;;;;;;;0.59;59.16;98769.91;5070371;28;20070;-59
2022/04/02 03:59:42;;;;;;;5.95;3.80;;;;;;;0.55;59.27;98771.88;5070259;28;20067;-62
2022/04/02 04:02:08;;;;;;;3.30;2.38;;;;;;;0.71;58.55;98761.31;5070638;28;20024;-62
2022/04/02 04:04:35;;;;;;;9.65;3.88;;;;;;;0.40;59.10;98771.78;5070190;28;20565;-62
2022/04/02 04:07:01;;;;;;;6.05;4.00;;;;;;;0.55;58.92;98775.34;5070326;28;20028;-63
2022/04/02 04:09:27;;;;;;;7.47;3.90;;;;;;;0.33;60.10;98759.91;5070321;28;20036;-62
2022/04/02 04:11:54;;;;;;;6.18;4.10;;;;;;;0.27;60.21;98773.44;5072148;28;20442;-62
2022/04/02 04:14:20;;;;;;;5.43;3.63;;;;;;;0.39;59.70;98764.84;5074431;28;20366;-61
2022/04/02 04:16:46;;;;;;;8.15;3.25;;;;;;;0.30;60.68;98757.47;5074573;28;20466;-63
2022/04/02 04:19:12;;;;;;;6.00;3.50;;;;;;;0.41;59.65;98772.66;5074177;28;20517;-62
2022/04/02 04:21:37;;;;;;;7.35;3.78;;;;;;;0.39;59.60;98759.56;5074085;28;20386;-62
2022/04/02 04:24:04;;;;;;;5.95;3.50;;;;;;;0.53;59.31;98765.84;5056528;28;20032;-62
2022/04/02 04:26:30;;;;;;;9.32;4.03;;;;;;;0.20;60.91;98761.50;5073820;28;20028;-64
2022/04/02 04:28:56;;;;;;;8.20;4.47;;;;;;;0.19;62.10;98754.56;5073638;28;20036;-63
2022/04/02 04:31:22;;;;;;;7.18;3.92;;;;;;;0.31;61.31;98767.06;5074552;28;20093;-63
2022/04/02 04:33:48;;;;;;;4.57;3.13;;;;;;;0.44;60.80;98769.84;5074296;28;20486;-63
2022/04/02 04:36:16;;;;;;;8.73;4.32;;;;;;;0.56;60.41;98776.22;5055564;28;20040;-63
2022/04/02 04:38:43;;;;;;;5.93;2.75;;;;;;;0.53;59.58;98734.25;5073725;28;20060;-63
2022/04/02 04:41:08;;;;;;;6.82;4.70;;;;;;;0.31;61.72;98756.53;5074370;28;20047;-63
2022/04/02 04:43:35;;;;;;;6.93;3.42;;;;;;;0.30;62.47;98756.59;5073619;28;20033;-63
2022/04/02 04:46:02;;;;;;;5.45;3.78;;;;;;;0.62;60.69;98757.41;5073623;28;20397;-62
2022/04/02 04:48:28;;;;;;;4.15;1.95;;;;;;;0.54;61.06;98754.38;5073791;28;20085;-63
2022/04/02 04:50:54;;;;;;;7.95;4.07;;;;;;;0.34;61.57;98756.34;5073752;28;20402;-60
2022/04/02 04:53:19;;;;;;;5.53;3.90;;;;;;;0.33;62.10;98756.41;5055789;28;20025;-63
2022/04/02 04:55:45;;;;;;;7.70;4.55;;;;;;;0.10;63.29;98740.09;5073268;28;20029;-61
2022/04/02 04:58:11;;;;;;;6.45;4.80;;;;;;;0.21;63.57;98745.66;5073626;28;20037;-62
2022/04/02 05:00:37;;;;;;;5.85;4.03;;;;;;;0.16;63.15;98726.63;5073809;28;20037;-60
2022/04/02 05:03:02;;;;;;;6.78;4.40;;;;;;;0.43;63.17;98761.09;5073103;28;20083;-63
2022/04/02 05:05:31;;;;;;;7.13;4.70;;;;;;;0.55;63.33;98756.06;5073193;28;20478;-63
2022/04/02 05:07:58;;;;;;;7.30;4.43;;;;;;;0.32;62.50;98702.94;5073485;28;20028;-62
2022/04/02 05:10:23;;;;;;;6.70;4.57;;;;;;;0.54;62.26;98749.13;5073857;28;20021;-63
2022/04/02 05:12:49;;;;;;;7.15;3.70;;;;;;;0.66;61.73;98743.13;5072915;28;20107;-63
2022/04/02 05:15:15;;;;;;;6.78;4.43;;;;;;;0.45;62.52;98744.34;5072860;28;20044;-63
2022/04/02 05:17:41;;;;;;;6.85;3.97;;;;;;;0.39;63.02;98712.16;5073378;28;20033;-64
2022/04/02 05:20:10;;;;;;;6.05;3.72;;;;;;;0.82;61.49;98734.34;5073143;28;20090;-63
2022/04/02 05:22:36;;;;;;;4.10;2.97;;;;;;;0.55;61.76;98742.91;5071835;28;20354;-63
2022/04/02 05:25:03;;;;;;;6.68;3.25;;;;;;;0.69;61.59;98737.69;5072498;28;20032;-62
2022/04/02 05:27:28;;;;;;;9.93;4.30;;;;;;;0.43;61.87;98732.13;5073274;28;20029;-63
2022/04/02 05:29:54;;;;;;;9.98;4.70;;;;;;;0.33;62.77;98735.34;5073474;28;20047;-63
2022/04/02 05:32:20;;;;;;;7.95;4.55;;;;;;;-0.03;63.74;98687.31;5072946;28;20024;-64
2022/04/02 05:34:45;;;;;;;6.68;3.42;;;;;;;0.46;62.58;98725.84;5072526;28;20067;-64
2022/04/02 05:37:11;;;;;;;6.65;4.28;;;;;;;0.29;64.46;98732.06;5072771;28;20048;-63
2022/04/02 05:39:36;;;;;;;6.63;4.32;;;;;;;0.54;63.04;98728.03;5072815;28;20048;-63
2022/04/02 05:42:05;;;;;;;7.68;4.70;;;;;;;0.48;63.35;98723.09;5072657;28;20032;-62
2022/04/02 05:44:31;;;;;;;5.28;2.97;;;;;;;0.40;62.48;98692.78;5072612;28;20036;-63
2022/04/02 05:46:57;;;;;;;6.95;4.75;;;;;;;0.55;62.87;98719.19;5072422;28;20334;-59
2022/04/02 05:49:22;;;;;;;6.82;4.55;;;;;;;0.60;63.37;98724.19;5054491;28;20024;-63
2022/04/02 05:51:48;;;;;;;6.55;3.85;;;;;;;0.85;61.88;98715.72;5072315;28;20045;-62
2022/04/02 05:54:14;;;;;;;8.25;4.20;;;;;;;0.80;62.18;98708.09;5054261;28;20036;-62
2022/04/02 05:56:42;;;;;;;7.40;4.10;;;;;;;0.75;61.97;98711.94;5072507;28;20032;-64
2022/04/02 05:59:08;;;;;;;7.00;3.38;;;;;;;0.73;62.73;98722.56;5072311;28;20028;-63
2022/04/02 06:01:35;;;;;;;3.67;2.40;;;;;;;0.94;61.22;98709.91;5072169;28;20051;-63
2022/04/02 06:04:00;;;;;;;8.25;4.68;;;;;;;0.62;62.79;98701.28;5072582;28;20051;-62
2022/04/02 06:06:26;;;;;;;6.07;3.30;;;;;;;0.61;63.10;98700.41;5072466;28;20029;-63
2022/04/02 06:08:51;;;;;;;6.97;3.80;;;;;;;0.68;62.39;98704.38;5072168;28;20029;-62
2022/04/02 06:11:17;;;;;;;5.38;3.42;;;;;;;0.53;62.84;98671.88;5054432;28;20034;-62
2022/04/02 06:13:42;;;;;;;6.43;3.65;;;;;;;0.79;62.28;98705.56;5072297;28;20032;-65
2022/04/02 06:16:08;;;;;;;7.10;4.65;;;;;;;0.56;63.79;98691.94;5071810;28;20031;-64
2022/04/02 06:18:34;;;;;;;6.72;3.33;;;;;;;0.74;62.82;98686.53;5072007;28;20455;-64
2022/04/02 06:21:03;;;;;;;7.22;4.43;;;;;;;0.86;63.24;98685.81;5072165;28;20079;-62
2022/04/02 06:23:29;;;;;;;5.72;3.40;;;;;;;0.71;62.54;98648.88;5071954;28;20090;-63
2022/04/02 06:25:56;;;;;;;11.23;4.45;;;;;;;1.03;62.73;98691.88;5054191;28;20534;-64
2022/04/02 06:28:22;;;;;;;8.40;4.65;;;;;;;1.03;62.21;98676.88;5072324;28;20536;-65
2022/04/02 06:30:47;;;;;;;6.50;3.95;;;;;;;1.02;62.41;98684.91;5071442;28;20028;-62
2022/04/02 06:33:12;;;;;;;6.90;3.75;;;;;;;1.12;61.75;98688.66;5071533;28;20032;-62
2022/04/02 06:35:38;;;;;;;9.63;4.68;;;;;;;0.99;62.68;98684.16;5071636;28;20451;-63
2022/04/02 06:38:03;;;;;;;8.25;4.65;;;;;;;1.16;62.42;98678.81;5071398;28;20455;-63
2022/04/02 06:40:29;;;;;;;5.50;3.47;;;;;;;1.39;61.42;98661.56;5071834;28;20032;-65
2022/04/02 06:42:57;;;;;;;6.95;3.72;;;;;;;1.25;61.61;98621.09;5071533;28;20112;-63
2022/04/02 06:45:23;;;;;;;5.55;3.28;;;;;;;1.46;61.00;98646.22;5071551;28;20028;-62
2022/04/02 06:47:49;;;;;;;6.97;5.18;;;;;;;1.28;62.44;98642.00;5071485;28;20032;-62
2022/04/02 06:50:15;;;;;;;8.77;4.85;;;;;;;1.18;62.57;98640.84;5071098;28;20102;-63
2022/04/02 06:52:42;;;;;;;5.20;3.42;;;;;;;1.48;61.83;98634.63;5071147;28;20121;-63
2022/04/02 06:55:15;;;;;;;9.63;5.40;;;;;;;1.34;62.12;98619.66;5070488;28;20391;-62
2022/04/02 06:57:48;;;;;;;8.65;5.28;;;;;;;1.22;62.89;98608.09;5071143;28;20032;-63
2022/04/02 07:00:15;;;;;;;9.20;5.72;;;;;;;1.30;63.14;98599.69;5070475;28;20095;-64
2022/04/02 07:02:40;;;;;;;8.68;5.57;;;;;;;1.44;62.46;98601.44;5071255;28;20025;-63
2022/04/02 07:05:06;;;;;;;8.50;5.07;;;;;;;1.59;61.88;98599.66;5071227;28;20477;-63
2022/04/02 07:07:32;;;;;;;9.52;5.57;;;;;;;1.76;61.76;98601.22;5071128;28;20032;-63
2022/04/02 07:09:58;;;;;;;8.80;5.43;;;;;;;1.94;60.44;98591.25;5070954;28;20110;-60
2022/04/02 07:12:23;;;;;;;9.77;5.43;;;;;;;1.85;61.01;98582.16;5070719;28;20534;-56
2022/04/02 07:14:49;;;;;;;11.57;6.07;;;;;;;1.77;61.38;98587.09;5071096;28;20059;-61
2022/04/02 07:17:14;;;;;;;8.18;4.78;;;;;;;1.92;60.83;98587.88;5070766;28;20417;-63
2022/04/02 07:19:41;;;;;;;8.10;4.85;;;;;;;2.01;60.77;98571.44;5070186;28;20035;-59
2022/04/02 07:22:10;;;;;;;9.10;5.80;;;;;;;1.85;61.45;98573.41;5070467;28;20044;-62
2022/04/02 07:24:40;;;;;;;8.82;5.22;;;;;;;2.05;60.83;98569.44;5070183;28;20028;-64
2022/04/02 07:27:07;;;;;;;9.35;5.85;;;;;;;1.99;60.94;98548.75;5059164;28;20032;-63
2022/04/02 07:29:33;;;;;;;9.77;5.70;;;;;;;1.88;60.46;98514.25;5068449;28;20036;-55
2022/04/02 07:31:59;;;;;;;9.88;5.70;;;;;;;2.00;61.63;98547.78;5070832;28;20035;-64
2022/04/02 07:34:25;;;;;;;9.75;5.78;;;;;;;2.24;60.40;98558.50;5070780;28;20028;-63
2022/04/02 07:37:11;;;;;;;9.13;5.65;;;;;;;2.08;61.94;98558.69;5069680;28;20477;-65
2022/04/02 07:40:02;;;;;;;13.60;5.18;;;;;;;2.51;60.62;98560.22;5052265;28;20044;-66
2022/04/02 07:42:37;;;;;;;10.48;4.43;;;;;;;2.54;59.79;98560.06;5067609;28;20033;-65
2022/04/02 07:45:06;;;;;;;7.18;4.50;;;;;;;2.47;59.48;98560.56;5050588;28;20498;-65
2022/04/02 07:47:35;;;;;;;9.07;5.68;;;;;;;2.22;61.93;98555.13;5037128;28;20039;-66
2022/04/02 07:50:13;;;;;;;9.30;5.18;;;;;;;2.48;61.14;98543.75;5069822;28;20500;-65
2022/04/02 07:52:43;;;;;;;9.00;5.32;;;;;;;2.64;60.45;98546.19;5070466;28;20108;-66
2022/04/02 07:55:10;;;;;;;9.60;4.95;;;;;;;2.07;61.36;98509.47;5069358;28;20036;-68
2022/04/02 07:57:47;;;;;;;8.27;5.20;;;;;;;2.56;60.90;98552.00;5069733;28;20052;-67
2022/04/02 08:00:15;;;;;;;10.40;4.85;;;;;;;2.38;60.87;98549.66;5069928;28;20071;-63
2022/04/02 08:02:44;;;;;;;13.10;6.57;;;;;;;2.15;61.66;98552.03;5067407;28;20079;-62
2022/04/02 08:05:14;;;;;;;8.52;5.53;;;;;;;1.78;62.91;98522.81;5069606;28;20044;-63
2022/04/02 08:07:44;;;;;;;7.28;5.03;;;;;;;2.15;61.53;98548.56;5050223;28;20033;-62
2022/04/02 08:10:13;;;;;;;10.02;5.65;;;;;;;2.13;62.10;98550.47;5068927;28;20033;-62
2022/04/02 08:12:41;;;;;;;9.23;5.55;;;;;;;1.83;63.14;98523.34;5048821;28;20028;-62
2022/04/02 08:15:12;;;;;;;9.63;4.03;;;;;;;2.26;61.45;98537.28;5049958;28;20033;-64
2022/04/02 08:17:39;;;;;;;6.28;4.78;;;;;;;2.41;61.03;98532.75;5049745;28;20025;-63
2022/04/02 08:20:05;;;;;;;9.68;4.63;;;;;;;2.01;61.57;98500.16;5064366;28;20127;-61
2022/04/02 08:22:31;;;;;;;7.00;4.68;;;;;;;2.16;61.70;98529.13;5069680;28;20028;-63
2022/04/02 08:24:58;;;;;;;7.53;5.40;;;;;;;2.12;61.96;98528.47;5070066;28;20528;-61
2022/04/02 08:27:45;;;;;;;11.00;5.03;;;;;;;2.33;61.29;98509.50;5069160;28;20033;-65
2022/04/02 08:30:17;;;;;;;9.57;4.90;;;;;;;2.35;61.77;98510.25;5069828;28;20043;-62
2022/04/02 08:33:13;;;;;;;6.03;4.00;;;;;;;2.60;60.14;98505.91;5070024;28;20119;-59
2022/04/02 08:35:57;;;;;;;10.30;4.88;;;;;;;2.53;60.23;98494.09;5069366;28;20070;-63
2022/04/02 08:38:39;;;;;;;7.45;4.70;;;;;;;2.60;60.15;98486.59;5052875;28;20046;-64
2022/04/02 08:41:19;;;;;;;13.50;3.92;;;;;;;3.05;58.82;98494.03;5069827;28;20040;-60
2022/04/02 08:44:07;;;;;;;9.27;5.03;;;;;;;2.80;59.79;98482.56;5069842;28;20033;-62
2022/04/02 08:46:39;;;;;;;10.32;4.70;;;;;;;2.86;59.21;98485.63;5069659;28;20056;-64
2022/04/02 08:49:22;;;;;;;5.55;3.22;;;;;;;3.10;58.49;98479.53;5052533;28;20496;-65
2022/04/02 08:52:16;;;;;;;7.28;3.22;;;;;;;3.06;58.30;98477.22;5069290;28;20039;-65
2022/04/02 08:54:57;;;;;;;8.32;4.75;;;;;;;3.03;58.77;98474.78;5050790;28;20472;-64
2022/04/02 08:57:32;;;;;;;4.60;3.97;;;;;;;3.24;57.30;98464.47;5070033;28;20131;-65
2022/04/02 09:00:03;;;;;;;6.25;4.65;;;;;;;2.89;58.21;98442.22;5072952;28;20035;-66
2022/04/02 09:02:54;;;;;;;5.80;3.55;;;;;;;3.14;58.15;98465.13;5073067;28;20430;-66
2022/04/02 09:05:19;;;;;;;6.53;4.00;;;;;;;2.68;59.94;98461.31;5052153;28;20098;-64
2022/04/02 09:08:22;;;;;;;7.95;3.92;;;;;;;2.84;59.93;98462.88;5072461;28;20058;-64
2022/04/02 09:11:04;;;;;;;7.07;4.90;;;;;;;2.91;59.03;98445.66;5073116;28;20035;-61
2022/04/02 09:14:08;;;;;;;6.90;5.07;;;;;;;2.70;60.84;98433.00;5052399;28;20478;-62
2022/04/02 09:17:00;;;;;;;10.13;5.40;;;;;;;2.87;60.56;98434.44;5025132;28;20114;-65
2022/04/02 09:19:42;;;;;;;9.68;4.65;;;;;;;3.12;58.58;98416.81;5072756;28;20029;-63
2022/04/02 09:22:46;;;;;;;8.82;4.95;;;;;;;2.99;60.18;98408.91;5071777;28;20029;-65
2022/04/02 09:25:30;;;;;;;6.28;4.03;;;;;;;3.30;58.39;98409.31;5053988;28;20033;-63
2022/04/02 09:28:20;;;;;;;9.05;4.93;;;;;;;3.24;58.28;98414.19;5054971;28;20389;-61
2022/04/02 09:31:12;;;;;;;7.00;4.70;;;;;;;3.09;58.85;98417.03;5073116;28;20032;-64
2022/04/02 09:34:00;;;;;;;6.32;4.80;;;;;;;3.01;59.01;98404.34;5073047;28;20025;-64
2022/04/02 09:36:47;;;;;;;10.45;5.50;;;;;;;2.85;58.82;98406.41;5072709;28;20157;-65
2022/04/02 09:39:30;;;;;;;4.63;3.08;;;;;;;2.98;58.99;98414.28;5072872;28;20152;-65
2022/04/02 09:41:58;;;;;;;8.65;5.25;;;;;;;2.72;59.33;98398.50;5055100;28;20087;-65
2022/04/02 09:44:46;;;;;;;8.38;5.03;;;;;;;2.72;59.78;98402.00;5054650;28;20033;-67
2022/04/02 09:47:29;;;;;;;8.57;5.32;;;;;;;2.58;60.51;98388.91;5072897;28;20040;-65
2022/04/02 09:50:15;;;;;;;7.10;5.20;;;;;;;2.77;59.93;98387.63;5072549;28;20056;-66
2022/04/02 09:52:46;;;;;;;8.20;5.50;;;;;;;2.96;58.61;98382.69;5072767;28;20051;-67
2022/04/02 09:55:13;;;;;;;6.07;2.42;;;;;;;3.11;57.72;98372.81;5072649;28;20052;-64
2022/04/02 09:57:45;;;;;;;6.32;4.82;;;;;;;2.69;58.79;98380.22;5054689;28;20153;-64
2022/04/02 10:00:22;;;;;;;6.82;4.82;;;;;;;2.41;59.31;98332.00;5072310;28;20607;-63
2022/04/02 10:03:17;;;;;;;7.93;4.90;;;;;;;2.81;59.99;98365.28;5054537;28;20024;-65
2022/04/02 10:05:42;;;;;;;7.35;4.47;;;;;;;2.83;58.38;98358.09;5037754;28;20066;-63
2022/04/02 10:08:36;;;;;;;7.95;4.55;;;;;;;2.61;59.52;98367.56;5072632;28;20021;-63
2022/04/02 10:11:02;;;;;;;5.43;3.63;;;;;;;2.87;58.33;98368.34;5072300;28;20028;-63
2022/04/02 10:13:33;;;;;;;10.05;5.22;;;;;;;2.22;59.70;98313.97;5072119;28;20047;-61
2022/04/02 10:16:04;;;;;;;9.57;5.32;;;;;;;2.29;60.83;98345.13;5072146;28;20043;-62
2022/04/02 10:18:34;;;;;;;7.50;4.70;;;;;;;2.69;59.57;98352.03;5072561;28;20196;-64
2022/04/02 10:21:03;;;;;;;6.55;4.75;;;;;;;2.58;59.95;98355.44;5071996;28;20047;-64
2022/04/02 10:23:30;;;;;;;4.93;4.03;;;;;;;2.58;60.13;98339.56;5071822;28;20111;-65
2022/04/02 10:26:15;;;;;;;10.05;5.68;;;;;;;2.55;60.96;98341.59;5071949;28;20037;-65
2022/04/02 10:28:41;;;;;;;7.55;4.57;;;;;;;2.80;59.23;98345.97;5071985;28;20107;-65
2022/04/02 10:31:15;;;;;;;5.25;3.88;;;;;;;2.70;59.41;98340.50;5054118;28;20516;-64
2022/04/02 10:33:48;;;;;;;7.38;4.78;;;;;;;2.65;59.82;98354.97;5053958;28;20107;-64
2022/04/02 10:36:14;;;;;;;7.28;4.80;;;;;;;2.43;60.37;98340.66;5071969;28;20113;-64
2022/04/02 10:38:48;;;;;;;10.43;5.65;;;;;;;2.20;61.71;98324.63;5053259;28;20469;-64
2022/04/02 10:41:16;;;;;;;6.25;4.13;;;;;;;2.56;60.75;98330.06;5071634;28;20024;-65
2022/04/02 10:44:00;;;;;;;8.85;5.63;;;;;;;2.46;60.73;98321.94;5071670;28;20036;-60
2022/04/02 10:46:26;;;;;;;5.10;3.85;;;;;;;2.44;60.61;98316.78;5071506;28;20037;-64
2022/04/02 10:48:58;;;;;;;6.82;4.30;;;;;;;2.75;59.90;98320.81;5071564;28;20141;-65
2022/04/02 10:51:25;;;;;;;5.60;3.00;;;;;;;2.72;59.60;98325.38;5070809;28;20021;-65
2022/04/02 10:54:00;;;;;;;5.35;3.38;;;;;;;2.63;59.51;98312.81;5071702;28;20090;-62
2022/04/02 10:56:32;;;;;;;8.30;5.15;;;;;;;2.57;59.95;98310.59;5071421;28;20047;-63
2022/04/02 10:58:58;;;;;;;7.50;5.53;;;;;;;2.31;60.95;98310.69;5071018;28;20036;-63
2022/04/02 11:01:25;;;;;;;8.98;5.25;;;;;;;2.17;61.51;98310.78;5070950;28;20032;-62
2022/04/02 11:03:56;;;;;;;8.30;4.70;;;;;;;2.29;61.28;98310.81;5071396;28;20123;-62
2022/04/02 11:06:48;;;;;;;5.97;4.57;;;;;;;2.46;60.89;98314.03;5053217;28;20390;-63
2022/04/02 11:09:28;;;;;;;4.32;2.70;;;;;;;2.53;60.66;98307.38;5070788;28;20047;-61
2022/04/02 11:11:57;;;;;;;5.90;3.92;;;;;;;2.41;60.82;98301.16;5070989;28;20035;-65
2022/04/02 11:14:23;;;;;;;7.97;4.82;;;;;;;2.12;62.23;98305.84;5071323;28;20132;-65
2022/04/02 11:16:48;;;;;;;7.35;4.68;;;;;;;1.97;63.49;98308.59;5071267;28;20047;-64
2022/04/02 11:22:08;;;;;;;6.90;5.03;;;;;;;2.22;62.27;98306.88;5069928;28;20043;-64
2022/04/02 11:25:02;;;;;;;7.95;5.10;;;;;;;2.23;62.71;98328.88;5069739;28;20238;-65
2022/04/02 11:27:30;;;;;;;7.00;4.80;;;;;;;2.31;62.05;98341.53;5062155;28;20085;-65
2022/04/02 11:30:16;;;;;;;6.15;4.30;;;;;;;2.43;62.16;98336.22;5070490;28;20221;-65
2022/04/02 11:32:48;;;;;;;8.05;5.15;;;;;;;2.36;62.61;98345.53;5071068;28;20109;-65
2022/04/02 11:35:21;;;;;;;9.90;4.45;;;;;;;2.28;62.59;98337.31;5070540;28;20032;-64
2022/04/02 11:38:01;;;;;;;7.70;4.45;;;;;;;2.50;62.77;98335.78;5070421;28;20051;-62
2022/04/02 11:40:28;;;;;;;5.47;3.97;;;;;;;2.17;63.76;98343.34;5070299;28;20045;-64
2022/04/02 11:42:58;;;;;;;9.57;4.90;;;;;;;2.22;63.86;98340.38;5070582;28;20438;-63
2022/04/02 11:45:25;;;;;;;6.20;3.88;;;;;;;1.98;64.49;98335.88;5070456;28;20024;-63
2022/04/02 11:48:08;;;;;;;7.10;5.18;;;;;;;1.60;65.65;98284.78;5070179;28;20032;-64
2022/04/02 11:50:38;;;;;;;7.15;5.13;;;;;;;1.83;66.63;98343.88;5070691;28;20060;-64
2022/04/02 11:53:03;;;;;;;7.60;4.97;;;;;;;1.84;66.22;98340.28;5070362;28;20035;-64
2022/04/02 11:55:34;;;;;;;7.28;4.85;;;;;;;1.84;66.88;98340.28;5070252;28;20040;-64
2022/04/02 11:58:08;;;;;;;6.38;4.60;;;;;;;2.17;65.65;98348.63;5070618;28;20032;-65
2022/04/02 12:00:43;;;;;;;6.47;4.07;;;;;;;1.89;66.34;98331.19;5070195;28;20036;-65